createdAt,value
2019-03-01T00:00:16.418Z,78.97
2019-03-01T00:02:46.787Z,80.77
2019-03-01T00:05:30.611Z,77.25
2019-03-01T00:08:10.382Z,84.40
2019-03-01T00:10:57.841Z,82.42
2019-03-01T00:13:44.967Z,86.30
2019-03-01T00:16:42.043Z,77.65
2019-03-01T00:20:02.358Z,69.27
2019-03-01T00:22:52.437Z,70.85
2019-03-01T00:25:36.709Z,79.72
2019-03-01T00:28:20.706Z,64.45
2019-03-01T00:31:18.810Z,81.65
2019-03-01T00:34:16.420Z,76.97
2019-03-01T00:37:06.228Z,83.65
2019-03-01T00:39:56.606Z,76.82
2019-03-01T00:42:46.656Z,72.65
2019-03-01T00:45:17.049Z,72.60
2019-03-01T00:47:47.674Z,74.67
2019-03-01T00:50:18.031Z,80.10
2019-03-01T00:52:48.376Z,73.87
2019-03-01T00:55:19.024Z,66.67
2019-03-01T00:57:49.698Z,76.50
2019-03-01T01:00:36.643Z,80.80
2019-03-01T01:03:07.288Z,75.28
2019-03-01T01:05:37.613Z,75.80
2019-03-01T01:08:07.970Z,79.87
2019-03-01T01:10:38.354Z,73.12
2019-03-01T01:13:09.211Z,75.52
2019-03-01T01:15:39.815Z,73.07
2019-03-01T01:18:10.425Z,71.72
2019-03-01T01:20:40.797Z,77.35
2019-03-01T01:23:11.705Z,73.17
2019-03-01T01:25:42.073Z,63.92
2019-03-01T01:28:12.662Z,66.60
2019-03-01T01:30:43.308Z,66.87
2019-03-01T01:33:13.950Z,66.00
2019-03-01T01:35:44.308Z,72.05
2019-03-01T01:38:15.627Z,74.42
2019-03-01T01:40:45.972Z,65.47
2019-03-01T01:43:16.904Z,72.55
2019-03-01T01:45:47.496Z,69.20
2019-03-01T01:48:17.817Z,65.32
2019-03-01T01:50:48.472Z,71.30
2019-03-01T01:53:18.816Z,75.60
2019-03-01T01:55:49.594Z,68.72
2019-03-01T01:58:19.933Z,70.15
2019-03-01T02:00:50.303Z,79.35
2019-03-01T02:03:20.912Z,80.28
2019-03-01T02:05:51.566Z,72.20
2019-03-01T02:08:21.920Z,75.17
2019-03-01T02:10:52.264Z,70.78
2019-03-01T02:13:22.599Z,76.25
2019-03-01T02:15:53.107Z,76.60
2019-03-01T02:18:23.709Z,77.32
2019-03-01T02:20:54.059Z,78.17
2019-03-01T02:23:24.708Z,65.47
2019-03-01T02:25:55.075Z,69.20
2019-03-01T02:28:25.676Z,75.12
2019-03-01T02:31:03.948Z,79.20
2019-03-01T02:33:34.258Z,70.85
2019-03-01T02:36:04.647Z,72.47
2019-03-01T02:38:35.269Z,75.83
2019-03-01T02:41:05.724Z,71.50
2019-03-01T02:43:36.098Z,83.10
2019-03-01T02:46:07.017Z,71.40
2019-03-01T02:48:37.488Z,69.17
2019-03-01T02:51:07.844Z,75.55
2019-03-01T02:53:38.170Z,72.27
2019-03-01T02:56:08.557Z,74.30
2019-03-01T02:58:38.877Z,67.47
2019-03-01T03:01:09.521Z,78.92
2019-03-01T03:03:40.175Z,76.12
2019-03-01T03:06:12.501Z,70.57
2019-03-01T03:08:43.231Z,71.85
2019-03-01T03:11:13.576Z,74.62
2019-03-01T03:13:44.497Z,68.25
2019-03-01T03:16:15.126Z,76.92
2019-03-01T03:18:45.985Z,83.55
2019-03-01T03:21:16.660Z,66.17
2019-03-01T03:23:47.311Z,82.95
2019-03-01T03:26:17.898Z,61.33
2019-03-01T03:28:48.273Z,72.87
2019-03-01T03:31:18.638Z,64.95
2019-03-01T03:33:49.020Z,75.55
2019-03-01T03:36:19.616Z,66.67
2019-03-01T03:38:49.977Z,74.32
2019-03-01T03:41:20.577Z,71.90
2019-03-01T03:43:51.201Z,65.47
2019-03-01T03:46:21.580Z,68.45
2019-03-01T03:48:52.269Z,72.90
2019-03-01T03:51:22.880Z,77.45
2019-03-01T03:53:53.542Z,64.72
2019-03-01T03:56:23.882Z,82.80
2019-03-01T03:58:54.581Z,66.90
2019-03-01T04:01:25.180Z,79.70
2019-03-01T04:03:55.518Z,68.10
2019-03-01T04:06:25.864Z,68.25
2019-03-01T04:08:56.239Z,67.08
2019-03-01T04:11:26.717Z,64.12
2019-03-01T04:13:57.075Z,75.15
2019-03-01T04:16:27.442Z,79.90
2019-03-01T04:18:57.805Z,64.42
2019-03-01T04:21:28.417Z,65.65
2019-03-01T04:23:58.750Z,75.65
2019-03-01T04:26:29.412Z,69.07
2019-03-01T04:29:00.063Z,72.95
2019-03-01T04:31:30.472Z,76.17
2019-03-01T04:34:00.812Z,77.00
2019-03-01T04:36:31.825Z,70.08
2019-03-01T04:39:02.555Z,60.52
2019-03-01T04:41:33.469Z,67.42
2019-03-01T04:44:03.817Z,63.65
2019-03-01T04:46:34.171Z,67.50
2019-03-01T04:49:04.776Z,58.45
2019-03-01T04:51:40.081Z,71.25
2019-03-01T04:54:07.485Z,68.02
2019-03-01T04:56:37.819Z,67.40
2019-03-01T04:59:08.171Z,76.25
2019-03-01T05:01:38.837Z,65.65
2019-03-01T05:04:09.205Z,69.35
2019-03-01T05:06:39.897Z,68.80
2019-03-01T05:09:10.475Z,68.57
2019-03-01T05:11:40.839Z,64.95
2019-03-01T05:14:11.719Z,65.75
2019-03-01T05:16:42.052Z,63.85
2019-03-01T05:19:12.764Z,67.50
2019-03-01T05:21:43.360Z,72.32
2019-03-01T05:24:14.301Z,70.22
2019-03-01T05:26:44.671Z,72.10
2019-03-01T05:29:15.282Z,68.65
2019-03-01T05:31:45.886Z,64.45
2019-03-01T05:34:16.261Z,73.10
2019-03-01T05:36:46.583Z,72.70
2019-03-01T05:39:16.935Z,82.82
2019-03-01T05:41:47.287Z,89.47
2019-03-01T05:44:17.668Z,103.38
2019-03-01T05:46:48.286Z,100.38
2019-03-01T05:49:18.634Z,93.82
2019-03-01T05:51:48.962Z,107.27
2019-03-01T05:54:19.316Z,86.85
2019-03-01T05:56:49.909Z,98.95
2019-03-01T05:59:22.489Z,91.20
2019-03-01T06:02:21.672Z,92.80
2019-03-01T06:04:56.944Z,88.03
2019-03-01T06:07:50.269Z,96.25
2019-03-01T06:10:34.319Z,97.70
2019-03-01T06:13:15.207Z,91.30
2019-03-01T06:15:58.895Z,98.45
2019-03-01T06:19:08.361Z,104.05
2019-03-01T06:22:09.011Z,96.10
2019-03-01T06:25:00.921Z,111.83
2019-03-01T06:27:47.933Z,102.85
2019-03-01T06:30:54.130Z,93.90
2019-03-01T06:33:50.309Z,97.62
2019-03-01T06:36:31.467Z,104.80
2019-03-01T06:39:25.763Z,106.87
2019-03-01T06:42:05.976Z,104.00
2019-03-01T06:44:49.571Z,106.80
2019-03-01T06:47:42.793Z,96.80
2019-03-01T06:50:21.188Z,100.85
2019-03-01T06:52:51.560Z,110.17
2019-03-01T06:55:35.020Z,96.65
2019-03-01T06:58:08.467Z,104.53
2019-03-01T07:00:47.302Z,106.07
2019-03-01T07:03:12.758Z,103.10
2019-03-01T07:05:43.651Z,101.80
2019-03-01T07:08:14.012Z,100.33
2019-03-01T07:10:44.697Z,99.40
2019-03-01T07:13:15.294Z,97.70
2019-03-01T07:15:45.646Z,95.67
2019-03-01T07:18:15.993Z,96.78
2019-03-01T07:20:46.727Z,96.60
2019-03-01T07:23:17.109Z,122.00
2019-03-01T07:25:47.443Z,110.37
2019-03-01T07:28:18.115Z,104.07
2019-03-01T07:30:48.999Z,111.47
2019-03-01T07:33:20.257Z,103.27
2019-03-01T07:35:50.615Z,121.90
2019-03-01T07:38:20.981Z,109.67
2019-03-01T07:40:51.694Z,96.47
2019-03-01T07:43:22.040Z,114.47
2019-03-01T07:45:52.393Z,105.80
2019-03-01T07:48:22.801Z,110.20
2019-03-01T07:50:55.216Z,112.12
2019-03-01T07:53:25.417Z,102.30
2019-03-01T07:55:55.850Z,127.85
2019-03-01T07:58:26.785Z,102.22
2019-03-01T08:00:57.472Z,112.35
2019-03-01T08:03:28.177Z,124.25
2019-03-01T08:05:58.510Z,114.65
2019-03-01T08:08:28.873Z,109.80
2019-03-01T08:11:00.155Z,103.05
2019-03-01T08:13:30.867Z,98.65
2019-03-01T08:16:01.235Z,95.60
2019-03-01T08:18:31.598Z,104.60
2019-03-01T08:21:02.582Z,94.22
2019-03-01T08:23:35.064Z,87.62
2019-03-01T08:26:05.028Z,93.95
2019-03-01T08:28:35.369Z,99.37
2019-03-01T08:31:05.713Z,90.42
2019-03-01T08:33:36.237Z,81.22
2019-03-01T08:36:07.252Z,86.00
2019-03-01T08:38:37.825Z,84.97
2019-03-01T08:41:08.182Z,87.65
2019-03-01T08:43:38.889Z,85.53
2019-03-01T08:46:10.502Z,85.30
2019-03-01T08:48:40.834Z,85.17
2019-03-01T08:51:11.514Z,87.10
2019-03-01T08:53:41.872Z,97.37
2019-03-01T08:56:14.676Z,84.72
2019-03-01T08:58:44.627Z,86.60
2019-03-01T09:01:22.749Z,86.12
2019-03-01T09:04:01.081Z,87.10
2019-03-01T09:06:31.738Z,94.90
2019-03-01T09:09:02.060Z,73.60
2019-03-01T09:11:32.549Z,89.62
2019-03-01T09:14:02.956Z,89.55
2019-03-01T09:16:33.918Z,85.70
2019-03-01T09:19:04.666Z,78.40
2019-03-01T09:21:34.973Z,77.75
2019-03-01T09:24:05.612Z,92.27
2019-03-01T09:26:36.008Z,91.65
2019-03-01T09:29:06.308Z,87.95
2019-03-01T09:31:36.641Z,96.97
2019-03-01T09:34:07.155Z,80.30
2019-03-01T09:36:39.183Z,79.75
2019-03-01T09:39:09.777Z,77.87
2019-03-01T09:41:41.614Z,83.12
2019-03-01T09:44:11.940Z,87.12
2019-03-01T09:46:42.573Z,85.60
2019-03-01T09:49:13.440Z,80.38
2019-03-01T09:51:49.077Z,90.77
2019-03-01T09:54:16.101Z,84.90
2019-03-01T09:56:46.736Z,87.47
2019-03-01T09:59:17.099Z,95.32
2019-03-01T10:01:47.732Z,92.95
2019-03-01T10:04:18.388Z,87.20
2019-03-01T10:06:48.774Z,99.22
2019-03-01T10:09:19.110Z,83.30
2019-03-01T10:11:49.437Z,80.62
2019-03-01T10:14:20.449Z,84.52
2019-03-01T10:16:53.403Z,88.25
2019-03-01T10:19:24.067Z,85.97
2019-03-01T10:21:54.677Z,100.22
2019-03-01T10:24:25.058Z,82.05
2019-03-01T10:26:55.407Z,78.60
2019-03-01T10:29:25.754Z,90.55
2019-03-01T10:31:56.648Z,87.05
2019-03-01T10:34:27.249Z,87.47
2019-03-01T10:36:57.596Z,97.60
2019-03-01T10:39:28.389Z,86.78
2019-03-01T10:41:58.765Z,106.50
2019-03-01T10:44:29.772Z,101.22
2019-03-01T10:47:00.124Z,91.72
2019-03-01T10:49:30.775Z,100.22
2019-03-01T10:52:01.234Z,107.87
2019-03-01T10:54:31.562Z,94.50
2019-03-01T10:57:02.184Z,99.50
2019-03-01T10:59:32.808Z,94.62
2019-03-01T11:02:03.149Z,100.95
2019-03-01T11:04:33.823Z,104.50
2019-03-01T11:07:04.234Z,100.15
2019-03-01T11:09:34.566Z,107.58
2019-03-01T11:12:05.179Z,92.62
2019-03-01T11:14:35.572Z,111.35
2019-03-01T11:17:06.453Z,99.37
2019-03-01T11:19:36.881Z,117.10
2019-03-01T11:22:07.219Z,111.77
2019-03-01T11:24:37.581Z,153.78
2019-03-01T11:27:12.804Z,138.37
2019-03-01T11:29:40.279Z,137.95
2019-03-01T11:32:10.898Z,153.07
2019-03-01T11:34:41.528Z,180.27
2019-03-01T11:37:11.911Z,164.37
2019-03-01T11:39:42.572Z,176.07
2019-03-01T11:42:12.930Z,170.10
2019-03-01T11:44:43.298Z,173.72
2019-03-01T11:47:13.918Z,172.85
2019-03-01T11:49:44.552Z,174.20
2019-03-01T11:52:15.220Z,161.30
2019-03-01T11:54:46.110Z,174.12
2019-03-01T11:57:16.785Z,153.00
2019-03-01T11:59:47.119Z,173.57
2019-03-01T12:02:17.576Z,179.45
2019-03-01T12:04:47.949Z,161.95
2019-03-01T12:07:18.287Z,163.75
2019-03-01T12:09:48.647Z,160.03
2019-03-01T12:12:19.314Z,162.75
2019-03-01T12:14:49.936Z,185.50
2019-03-01T12:17:20.294Z,188.37
2019-03-01T12:19:50.951Z,155.55
2019-03-01T12:22:21.325Z,140.43
2019-03-01T12:24:52.241Z,145.62
2019-03-01T12:27:22.866Z,133.65
2019-03-01T12:29:53.504Z,135.28
2019-03-01T12:32:24.392Z,143.22
2019-03-01T12:34:54.758Z,143.50
2019-03-01T12:37:25.411Z,121.77
2019-03-01T12:39:55.749Z,125.97
2019-03-01T12:42:26.078Z,111.22
2019-03-01T12:44:56.452Z,118.55
2019-03-01T12:47:26.778Z,106.65
2019-03-01T12:49:57.167Z,108.67
2019-03-01T12:52:27.767Z,96.95
2019-03-01T12:54:58.646Z,106.20
2019-03-01T12:57:29.315Z,90.32
2019-03-01T12:59:59.972Z,102.30
2019-03-01T13:02:30.327Z,100.50
2019-03-01T13:05:00.975Z,94.17
2019-03-01T13:07:31.700Z,103.35
2019-03-01T13:10:03.072Z,101.55
2019-03-01T13:12:34.381Z,96.65
2019-03-01T13:15:05.572Z,92.27
2019-03-01T13:17:37.312Z,80.40
2019-03-01T13:20:19.316Z,89.77
2019-03-01T13:22:49.692Z,94.32
2019-03-01T13:25:20.343Z,96.95
2019-03-01T13:27:52.369Z,84.97
2019-03-01T13:30:26.077Z,87.70
2019-03-01T13:32:58.874Z,88.17
2019-03-01T13:35:28.684Z,90.35
2019-03-01T13:37:59.041Z,85.70
2019-03-01T13:40:29.967Z,81.00
2019-03-01T13:43:00.334Z,68.65
2019-03-01T13:45:30.661Z,63.90
2019-03-01T13:48:03.157Z,69.35
2019-03-01T13:50:33.592Z,66.12
2019-03-01T13:53:03.959Z,62.93
2019-03-01T13:55:35.106Z,61.25
2019-03-01T13:58:05.494Z,60.52
2019-03-01T14:01:00.166Z,55.38
2019-03-01T14:03:30.803Z,44.15
2019-03-01T14:06:02.251Z,47.53
2019-03-01T14:08:32.654Z,42.13
2019-03-01T14:11:03.280Z,54.20
2019-03-01T14:13:33.636Z,41.50
2019-03-01T14:16:04.263Z,49.77
2019-03-01T14:18:36.849Z,43.83
2019-03-01T14:21:06.980Z,39.83
2019-03-01T14:23:37.342Z,44.30
2019-03-01T14:26:08.016Z,36.73
2019-03-01T14:28:41.173Z,32.85
2019-03-01T14:31:12.247Z,31.20
2019-03-01T14:33:42.768Z,32.53
2019-03-01T14:36:13.723Z,32.20
2019-03-01T14:38:44.469Z,32.35
2019-03-01T14:41:14.821Z,28.12
2019-03-01T14:43:45.482Z,27.32
2019-03-01T14:46:17.617Z,29.63
2019-03-01T14:48:48.705Z,34.30
2019-03-01T14:51:19.399Z,30.85
2019-03-01T14:53:49.775Z,25.35
2019-03-01T14:56:25.315Z,24.65
2019-03-01T14:59:14.741Z,23.50
2019-03-01T15:02:03.138Z,24.98
2019-03-01T15:04:33.582Z,21.00
2019-03-01T15:07:03.913Z,22.90
2019-03-01T15:09:34.252Z,25.95
2019-03-01T15:12:04.862Z,18.52
2019-03-01T15:14:35.378Z,18.37
2019-03-01T15:17:06.114Z,28.25
2019-03-01T15:19:36.457Z,14.90
2019-03-01T15:22:09.804Z,16.73
2019-03-01T15:24:39.154Z,20.27
2019-03-01T15:27:09.475Z,13.98
2019-03-01T15:29:40.102Z,18.23
2019-03-01T15:32:12.439Z,17.02
2019-03-01T15:34:42.781Z,24.20
2019-03-01T15:37:13.320Z,20.27
2019-03-01T15:39:43.811Z,32.67
2019-03-01T15:42:17.444Z,14.05
2019-03-01T15:44:47.095Z,18.02
2019-03-01T15:47:17.558Z,21.37
2019-03-01T15:49:51.094Z,11.85
2019-03-01T15:52:19.938Z,11.73
2019-03-01T15:54:50.290Z,10.78
2019-03-01T15:57:20.888Z,13.48
2019-03-01T15:59:51.515Z,13.05
2019-03-01T16:02:22.211Z,23.45
2019-03-01T16:04:53.144Z,12.73
2019-03-01T16:07:23.505Z,12.50
2019-03-01T16:09:54.397Z,9.40
2019-03-01T16:12:24.989Z,14.60
2019-03-01T16:14:57.415Z,9.55
2019-03-01T16:17:27.375Z,12.20
2019-03-01T16:19:58.021Z,8.25
2019-03-01T16:22:28.630Z,8.43
2019-03-01T16:24:58.969Z,8.08
2019-03-01T16:27:29.599Z,9.38
2019-03-01T16:29:59.937Z,13.55
2019-03-01T16:32:30.292Z,7.47
2019-03-01T16:35:00.623Z,12.58
2019-03-01T16:37:31.210Z,12.98
2019-03-01T16:40:01.837Z,8.80
2019-03-01T16:42:38.497Z,19.52
2019-03-01T16:45:06.835Z,10.18
2019-03-01T16:47:38.308Z,12.58
2019-03-01T16:50:22.730Z,17.35
2019-03-01T16:52:53.324Z,9.70
2019-03-01T16:55:29.610Z,10.60
2019-03-01T16:58:06.733Z,9.53
2019-03-01T17:00:32.114Z,15.70
2019-03-01T17:03:16.589Z,12.98
2019-03-01T17:05:45.075Z,22.00
2019-03-01T17:08:16.483Z,9.75
2019-03-01T17:10:47.152Z,10.43
2019-03-01T17:13:17.532Z,12.65
2019-03-01T17:15:48.549Z,10.50
2019-03-01T17:18:19.771Z,9.28
2019-03-01T17:20:50.395Z,6.37
2019-03-01T17:23:20.747Z,10.18
2019-03-01T17:25:51.168Z,14.18
2019-03-01T17:28:26.297Z,10.55
2019-03-01T17:30:54.543Z,8.20
2019-03-01T17:33:24.878Z,14.18
2019-03-01T17:35:55.202Z,9.30
2019-03-01T17:38:26.012Z,9.60
2019-03-01T17:40:56.925Z,12.47
2019-03-01T17:43:29.662Z,11.97
2019-03-01T17:45:59.578Z,10.75
2019-03-01T17:48:29.909Z,6.95
2019-03-01T17:51:00.318Z,6.37
2019-03-01T17:53:30.723Z,14.70
2019-03-01T17:56:01.352Z,18.82
2019-03-01T17:58:31.985Z,14.10
2019-03-01T18:01:02.873Z,12.90
2019-03-01T18:03:34.253Z,11.25
2019-03-01T18:06:05.174Z,13.00
2019-03-01T18:08:35.883Z,11.68
2019-03-01T18:11:08.655Z,10.50
2019-03-01T18:13:39.895Z,17.62
2019-03-01T18:16:10.237Z,12.95
2019-03-01T18:18:42.512Z,10.60
2019-03-01T18:21:13.977Z,20.25
2019-03-01T18:23:44.340Z,19.73
2019-03-01T18:26:14.954Z,19.20
2019-03-01T18:28:45.556Z,32.50
2019-03-01T18:31:15.928Z,20.20
2019-03-01T18:33:46.637Z,14.10
2019-03-01T18:36:16.961Z,13.93
2019-03-01T18:38:47.600Z,17.80
2019-03-01T18:41:18.219Z,17.35
2019-03-01T18:43:49.334Z,14.93
2019-03-01T18:46:20.650Z,14.35
2019-03-01T18:48:53.941Z,13.35
2019-03-01T18:51:24.281Z,13.25
2019-03-01T18:53:54.620Z,16.80
2019-03-01T18:56:28.628Z,18.75
2019-03-01T18:58:57.862Z,19.30
2019-03-01T19:01:28.470Z,12.93
2019-03-01T19:03:59.095Z,16.05
2019-03-01T19:06:30.074Z,11.88
2019-03-01T19:09:00.428Z,13.18
2019-03-01T19:11:30.885Z,14.73
2019-03-01T19:14:01.860Z,16.17
2019-03-01T19:16:32.953Z,11.05
2019-03-01T19:19:03.865Z,15.45
2019-03-01T19:21:34.254Z,9.38
2019-03-01T19:24:07.597Z,14.55
2019-03-01T19:26:37.615Z,15.65
2019-03-01T19:29:08.254Z,15.08
2019-03-01T19:31:39.272Z,16.67
2019-03-01T19:34:13.061Z,21.70
2019-03-01T19:36:41.988Z,11.38
2019-03-01T19:39:18.814Z,8.48
2019-03-01T19:41:49.454Z,7.50
2019-03-01T19:44:20.113Z,7.17
2019-03-01T19:46:51.361Z,6.45
2019-03-01T19:49:23.027Z,9.55
2019-03-01T19:51:53.864Z,9.68
2019-03-01T19:54:24.522Z,10.93
2019-03-01T19:56:57.664Z,10.28
2019-03-01T19:59:26.912Z,8.00
2019-03-01T20:01:57.527Z,13.80
2019-03-01T20:04:28.184Z,6.33
2019-03-01T20:06:58.539Z,7.33
2019-03-01T20:09:28.865Z,7.70
2019-03-01T20:12:02.684Z,6.90
2019-03-01T20:14:33.791Z,8.25
2019-03-01T20:17:03.565Z,12.47
2019-03-01T20:19:34.159Z,8.78
2019-03-01T20:22:04.546Z,16.05
2019-03-01T20:24:40.065Z,16.32
2019-03-01T20:27:07.476Z,13.13
2019-03-01T20:29:37.815Z,12.30
2019-03-01T20:32:08.134Z,9.60
2019-03-01T20:34:38.832Z,13.20
2019-03-01T20:37:09.198Z,17.87
2019-03-01T20:39:39.541Z,10.08
2019-03-01T20:42:09.892Z,10.72
2019-03-01T20:44:40.518Z,7.58
2019-03-01T20:47:10.836Z,7.37
2019-03-01T20:49:41.447Z,13.00
2019-03-01T20:52:11.772Z,10.45
2019-03-01T20:54:42.439Z,7.87
2019-03-01T20:57:13.042Z,9.85
2019-03-01T20:59:46.738Z,6.90
2019-03-01T21:02:15.905Z,9.53
2019-03-01T21:04:53.391Z,10.60
2019-03-01T21:07:21.387Z,9.25
2019-03-01T21:09:51.994Z,6.90
2019-03-01T21:12:22.922Z,10.58
2019-03-01T21:14:53.298Z,7.67
2019-03-01T21:17:23.931Z,10.40
2019-03-01T21:19:54.537Z,5.25
2019-03-01T21:22:25.125Z,9.53
2019-03-01T21:24:55.538Z,7.00
2019-03-01T21:27:26.738Z,7.58
2019-03-01T21:29:57.104Z,10.80
2019-03-01T21:32:27.431Z,8.93
2019-03-01T21:34:57.769Z,9.05
2019-03-01T21:37:28.146Z,9.13
2019-03-01T21:40:00.320Z,9.70
2019-03-01T21:42:30.976Z,8.23
2019-03-01T21:45:01.368Z,13.35
2019-03-01T21:47:32.992Z,7.45
2019-03-01T21:50:05.533Z,8.30
2019-03-01T21:52:35.786Z,10.13
2019-03-01T21:55:10.762Z,9.13
2019-03-01T21:57:41.073Z,4.35
2019-03-01T22:00:17.963Z,5.58
2019-03-01T22:02:48.962Z,6.83
2019-03-01T22:05:20.526Z,8.33
2019-03-01T22:07:50.893Z,12.05
2019-03-01T22:10:21.239Z,7.45
2019-03-01T22:12:51.660Z,6.53
2019-03-01T22:15:29.355Z,10.75
2019-03-01T22:18:00.038Z,7.35
2019-03-01T22:20:30.367Z,9.93
2019-03-01T22:23:01.016Z,6.95
2019-03-01T22:25:34.481Z,11.10
2019-03-01T22:28:03.735Z,12.30
2019-03-01T22:30:34.407Z,9.73
2019-03-01T22:33:05.273Z,8.03
2019-03-01T22:35:35.917Z,7.05
2019-03-01T22:38:06.582Z,8.43
2019-03-01T22:40:37.208Z,11.60
2019-03-01T22:43:08.653Z,9.45
2019-03-01T22:45:39.034Z,8.58
2019-03-01T22:48:11.771Z,16.05
2019-03-01T22:50:42.650Z,14.25
2019-03-01T22:53:13.779Z,7.15
2019-03-01T22:55:44.154Z,14.63
2019-03-01T22:58:14.745Z,8.33
2019-03-01T23:01:00.175Z,6.72
2019-03-01T23:03:30.501Z,10.00
2019-03-01T23:06:01.220Z,9.43
2019-03-01T23:08:35.424Z,7.85
2019-03-01T23:11:03.920Z,12.80
2019-03-01T23:13:34.270Z,8.45
2019-03-01T23:16:04.889Z,14.18
2019-03-01T23:18:37.586Z,11.05
2019-03-01T23:21:07.887Z,11.90
2019-03-01T23:23:38.563Z,9.95
2019-03-01T23:26:08.880Z,7.75
2019-03-01T23:28:40.794Z,7.87
2019-03-01T23:31:12.275Z,7.55
2019-03-01T23:33:42.895Z,7.60
2019-03-01T23:36:13.283Z,10.15
2019-03-01T23:38:46.600Z,11.80
2019-03-01T23:41:16.409Z,18.67
2019-03-01T23:43:47.055Z,8.20
2019-03-01T23:46:17.948Z,7.75
2019-03-01T23:48:48.912Z,10.80
2019-03-01T23:51:20.201Z,10.48
2019-03-01T23:53:51.073Z,9.78
2019-03-01T23:56:21.445Z,9.85
2019-03-01T23:58:52.995Z,9.60
